createdAt,value
2017-07-14T00:00:39.860Z,83.7
2017-07-14T00:01:50.402Z,83.9
2017-07-14T00:03:00.668Z,84.19
2017-07-14T00:04:10.942Z,84.19
2017-07-14T00:05:21.229Z,84.09
2017-07-14T00:06:31.490Z,84.28
2017-07-14T00:07:42.007Z,84.19
2017-07-14T00:08:51.958Z,84.19
2017-07-14T00:10:02.239Z,83.99
2017-07-14T00:11:12.481Z,84.19
2017-07-14T00:12:22.741Z,84.85
2017-07-14T00:13:33.257Z,84.95
2017-07-14T00:14:43.533Z,84.95
2017-07-14T00:15:53.480Z,84.56
2017-07-14T00:17:03.418Z,85.05
2017-07-14T00:18:13.678Z,84.95
2017-07-14T00:19:24.244Z,84.43
2017-07-14T00:20:34.513Z,85.14
2017-07-14T00:21:44.789Z,84.85
2017-07-14T00:22:55.054Z,84.47
2017-07-14T00:24:04.998Z,84.66
2017-07-14T00:25:15.567Z,84.47
2017-07-14T00:26:25.513Z,84.56
2017-07-14T00:27:35.791Z,84.85
2017-07-14T00:28:46.047Z,84.76
2017-07-14T00:29:56.302Z,85.14
2017-07-14T00:31:06.196Z,84.76
2017-07-14T00:32:16.463Z,85.14
2017-07-14T00:33:26.721Z,84.76
2017-07-14T00:34:36.987Z,85.05
2017-07-14T00:35:47.255Z,84.38
2017-07-14T00:36:57.793Z,84.91
2017-07-14T00:38:08.057Z,85.14
2017-07-14T00:39:18.316Z,85.05
2017-07-14T00:40:27.963Z,85.58
2017-07-14T00:41:38.225Z,85.48
2017-07-14T00:42:48.994Z,85.67
2017-07-14T00:43:59.274Z,85.29
2017-07-14T00:45:09.548Z,85.58
2017-07-14T00:46:19.798Z,85.29
2017-07-14T00:47:30.058Z,85.67
2017-07-14T00:48:40.256Z,85.58
2017-07-14T00:49:50.219Z,85.58
2017-07-14T00:51:00.472Z,85.77
2017-07-14T00:52:10.732Z,85.77
2017-07-14T00:53:20.671Z,85.38
2017-07-14T00:54:31.195Z,86.24
2017-07-14T00:55:41.159Z,86.15
2017-07-14T00:56:51.404Z,86.05
2017-07-14T00:58:01.682Z,86.53
2017-07-14T00:59:11.634Z,86.72
2017-07-14T01:00:22.161Z,86.53
2017-07-14T01:01:32.417Z,86.43
2017-07-14T01:02:42.675Z,86.43
2017-07-14T01:03:51.985Z,86.63
2017-07-14T01:05:02.276Z,86.72
2017-07-14T01:06:12.552Z,86.72
2017-07-14T01:07:22.828Z,86.24
2017-07-14T01:08:32.783Z,86.72
2017-07-14T01:09:42.743Z,86.82
2017-07-14T01:10:53.008Z,86.63
2017-07-14T01:12:03.532Z,86.72
2017-07-14T01:13:13.802Z,86.82
2017-07-14T01:14:24.068Z,86.72
2017-07-14T01:15:34.326Z,86.63
2017-07-14T01:16:44.277Z,86.72
2017-07-14T01:17:54.486Z,86.24
2017-07-14T01:19:04.757Z,87.2
2017-07-14T01:20:15.025Z,86.63
2017-07-14T01:21:25.296Z,87.1
2017-07-14T01:22:35.573Z,86.91
2017-07-14T01:23:45.453Z,86.82
2017-07-14T01:24:55.379Z,87.01
2017-07-14T01:26:05.642Z,86.43
2017-07-14T01:27:15.919Z,87.1
2017-07-14T01:28:26.182Z,87.01
2017-07-14T01:29:36.691Z,87.2
2017-07-14T01:30:46.333Z,86.82
2017-07-14T01:31:56.300Z,87.01
2017-07-14T01:33:06.557Z,87.1
2017-07-14T01:34:16.818Z,87.48
2017-07-14T01:35:27.009Z,87.2
2017-07-14T01:36:37.273Z,87.01
2017-07-14T01:37:47.528Z,87.01
2017-07-14T01:38:57.474Z,87.58
2017-07-14T01:40:07.732Z,88.06
2017-07-14T01:41:18.346Z,87.96
2017-07-14T01:42:28.616Z,88.25
2017-07-14T01:43:38.593Z,88.25
2017-07-14T01:44:48.543Z,87.29
2017-07-14T01:45:59.013Z,87.39
2017-07-14T01:47:09.529Z,87.58
2017-07-14T01:48:19.789Z,86.63
2017-07-14T01:49:30.069Z,87.15
2017-07-14T01:50:40.334Z,87.2
2017-07-14T01:51:50.626Z,87.87
2017-07-14T01:53:00.836Z,88.15
2017-07-14T01:54:11.121Z,87.87
2017-07-14T01:55:21.382Z,87.96
2017-07-14T01:56:31.645Z,88.73
2017-07-14T01:57:41.925Z,88.25
2017-07-14T01:58:52.443Z,88.54
2017-07-14T02:00:02.721Z,88.63
2017-07-14T02:01:12.973Z,89.39
2017-07-14T02:02:23.249Z,89.01
2017-07-14T02:03:32.899Z,89.01
2017-07-14T02:04:43.470Z,89.97
2017-07-14T02:05:53.736Z,89.2
2017-07-14T02:07:04.003Z,89.3
2017-07-14T02:08:14.266Z,89.3
2017-07-14T02:09:24.230Z,90.06
2017-07-14T02:10:34.745Z,89.25
2017-07-14T02:11:45.013Z,89.16
2017-07-14T02:12:54.974Z,89.3
2017-07-14T02:14:05.228Z,89.3
2017-07-14T02:15:15.174Z,89.11
2017-07-14T02:16:25.367Z,90.35
2017-07-14T02:17:35.339Z,89.97
2017-07-14T02:18:45.601Z,90.06
2017-07-14T02:19:55.873Z,90.35
2017-07-14T02:21:06.148Z,90.88
2017-07-14T02:22:16.386Z,90.11
2017-07-14T02:23:26.329Z,90.11
2017-07-14T02:24:36.280Z,90.25
2017-07-14T02:25:46.550Z,90.31
2017-07-14T02:26:56.828Z,90.88
2017-07-14T02:28:07.379Z,90.78
2017-07-14T02:29:17.651Z,91.26
2017-07-14T02:30:27.902Z,91.16
2017-07-14T02:31:38.166Z,90.97
2017-07-14T02:32:48.421Z,91.74
2017-07-14T02:33:58.950Z,92.12
2017-07-14T02:35:09.217Z,91.93
2017-07-14T02:36:19.495Z,92.02
2017-07-14T02:37:29.761Z,91.93
2017-07-14T02:38:39.730Z,92.6
2017-07-14T02:39:49.945Z,92.41
2017-07-14T02:40:59.897Z,92.21
2017-07-14T02:42:10.161Z,92.12
2017-07-14T02:43:20.117Z,92.12
2017-07-14T02:44:30.388Z,92.02
2017-07-14T02:45:40.898Z,93.55
2017-07-14T02:46:51.171Z,92.97
2017-07-14T02:48:01.447Z,92.79
2017-07-14T02:49:11.693Z,93.26
2017-07-14T02:50:21.994Z,92.41
2017-07-14T02:51:32.211Z,92.02
2017-07-14T02:52:42.476Z,92.12
2017-07-14T02:53:52.743Z,93.36
2017-07-14T02:55:02.703Z,93.26
2017-07-14T02:56:12.961Z,93.74
2017-07-14T02:57:22.844Z,92.69
2017-07-14T02:58:33.121Z,93.46
2017-07-14T02:59:42.761Z,93.36
2017-07-14T03:00:52.412Z,93.17
2017-07-14T03:02:02.669Z,93.17
2017-07-14T03:03:12.855Z,94.03
2017-07-14T03:04:22.806Z,93.26
2017-07-14T03:05:33.086Z,94.03
2017-07-14T03:06:43.028Z,93.93
2017-07-14T03:07:53.302Z,94.03
2017-07-14T03:09:03.807Z,93.84
2017-07-14T03:10:13.769Z,94.12
2017-07-14T03:11:23.734Z,94.12
2017-07-14T03:12:33.682Z,94.12
2017-07-14T03:13:43.941Z,93.84
2017-07-14T03:14:54.463Z,94.41
2017-07-14T03:16:04.405Z,94.41
2017-07-14T03:17:14.659Z,93.84
2017-07-14T03:18:24.928Z,94.6
2017-07-14T03:19:35.182Z,94.41
2017-07-14T03:20:45.752Z,94.51
2017-07-14T03:21:55.693Z,94.12
2017-07-14T03:23:05.663Z,94.41
2017-07-14T03:24:15.927Z,94.98
2017-07-14T03:25:25.880Z,94.12
2017-07-14T03:26:36.389Z,95.08
2017-07-14T03:27:46.650Z,94.98
2017-07-14T03:28:56.601Z,94.6
2017-07-14T03:30:06.554Z,94.51
2017-07-14T03:31:16.836Z,94.31
2017-07-14T03:32:27.356Z,95.17
2017-07-14T03:33:37.618Z,94.98
2017-07-14T03:34:47.869Z,94.7
2017-07-14T03:35:57.511Z,95.36
2017-07-14T03:37:07.451Z,95.17
2017-07-14T03:38:17.960Z,95.08
2017-07-14T03:39:28.215Z,95.46
2017-07-14T03:40:38.189Z,95.08
2017-07-14T03:41:48.148Z,94.79
2017-07-14T03:42:58.417Z,94.98
2017-07-14T03:44:08.959Z,94.98
2017-07-14T03:45:19.254Z,94.79
2017-07-14T03:46:29.517Z,94.6
2017-07-14T03:47:39.476Z,94.98
2017-07-14T03:48:49.754Z,94.7
2017-07-14T03:49:59.958Z,94.41
2017-07-14T03:51:09.890Z,94.22
2017-07-14T03:52:20.175Z,94.51
2017-07-14T03:53:30.443Z,94.51
2017-07-14T03:54:40.392Z,94.22
2017-07-14T03:55:50.914Z,94.89
2017-07-14T03:57:01.177Z,94.7
2017-07-14T03:58:11.130Z,95.27
2017-07-14T03:59:21.417Z,95.22
2017-07-14T04:00:31.697Z,95.22
2017-07-14T04:01:41.919Z,95.41
2017-07-14T04:02:51.872Z,95.17
2017-07-14T04:04:02.141Z,94.7
2017-07-14T04:05:12.413Z,94.98
2017-07-14T04:06:22.713Z,95.08
2017-07-14T04:07:32.905Z,94.79
2017-07-14T04:08:42.555Z,94.6
2017-07-14T04:09:52.835Z,94.46
2017-07-14T04:11:02.785Z,95.17
2017-07-14T04:12:12.725Z,94.89
2017-07-14T04:13:23.249Z,94.7
2017-07-14T04:14:33.526Z,94.89
2017-07-14T04:15:43.463Z,95.17
2017-07-14T04:16:53.406Z,95.27
2017-07-14T04:18:03.673Z,95.27
2017-07-14T04:19:14.183Z,95.17
2017-07-14T04:20:24.442Z,94.84
2017-07-14T04:21:34.715Z,95.08
2017-07-14T04:22:44.970Z,95.36
2017-07-14T04:23:54.923Z,96.27
2017-07-14T04:25:05.127Z,96.75
2017-07-14T04:26:15.419Z,97.32
2017-07-14T04:27:25.691Z,97.61
2017-07-14T04:28:35.965Z,96.75
2017-07-14T04:29:45.926Z,96.46
2017-07-14T04:30:56.444Z,95.79
2017-07-14T04:32:06.715Z,96.17
2017-07-14T04:33:16.996Z,95.22
2017-07-14T04:34:26.954Z,94.93
2017-07-14T04:35:37.227Z,95.32
2017-07-14T04:36:47.486Z,95.7
2017-07-14T04:37:57.747Z,95.41
2017-07-14T04:39:08.009Z,95.32
2017-07-14T04:40:17.956Z,94.46
2017-07-14T04:41:27.892Z,94.36
2017-07-14T04:42:38.403Z,94.41
2017-07-14T04:43:48.673Z,93.55
2017-07-14T04:44:58.957Z,92.97
2017-07-14T04:46:08.903Z,92.59
2017-07-14T04:47:19.190Z,92.21
2017-07-14T04:48:29.719Z,92.69
2017-07-14T04:49:39.677Z,92.74
2017-07-14T04:50:49.969Z,92.74
2017-07-14T04:52:00.253Z,92.07
2017-07-14T04:53:10.196Z,92.07
2017-07-14T04:54:20.726Z,91.49
2017-07-14T04:55:30.989Z,91.59
2017-07-14T04:56:41.250Z,91.78
2017-07-14T04:57:51.505Z,92.25
2017-07-14T04:59:01.462Z,92.74
2017-07-14T05:00:12.007Z,92.64
2017-07-14T05:01:21.949Z,92.54
2017-07-14T05:02:32.236Z,92.35
2017-07-14T05:03:42.492Z,92.83
2017-07-14T05:04:52.443Z,92.25
2017-07-14T05:06:03.004Z,91.97
2017-07-14T05:07:13.278Z,91.88
2017-07-14T05:08:23.546Z,92.54
2017-07-14T05:09:33.206Z,92.07
2017-07-14T05:10:43.183Z,92.25
2017-07-14T05:11:53.714Z,92.64
2017-07-14T05:13:04.006Z,92.64
2017-07-14T05:14:14.284Z,92.45
2017-07-14T05:15:24.564Z,92.74
2017-07-14T05:16:34.532Z,91.49
2017-07-14T05:17:44.784Z,89.48
2017-07-14T05:18:54.747Z,90.49
2017-07-14T05:20:05.016Z,89.87
2017-07-14T05:21:15.293Z,89.48
2017-07-14T05:22:25.559Z,90.25
2017-07-14T05:23:35.746Z,90.25
2017-07-14T05:24:45.992Z,90.53
2017-07-14T05:25:56.487Z,90.34
2017-07-14T05:27:06.428Z,90.44
2017-07-14T05:28:16.398Z,90.2
2017-07-14T05:29:26.630Z,89.91
2017-07-14T05:30:36.898Z,88.38
2017-07-14T05:31:47.158Z,88.67
2017-07-14T05:32:57.674Z,88.09
2017-07-14T05:34:07.937Z,88.48
2017-07-14T05:35:18.144Z,87.9
2017-07-14T05:36:28.425Z,87.71
2017-07-14T05:37:38.706Z,87.23
2017-07-14T05:38:48.656Z,86.37
2017-07-14T05:39:58.596Z,87.56
2017-07-14T05:41:08.792Z,87.56
2017-07-14T05:42:19.062Z,86.04
2017-07-14T05:43:29.047Z,86.7
2017-07-14T05:44:39.343Z,87.47
2017-07-14T05:45:49.300Z,87.76
2017-07-14T05:46:59.505Z,88.71
2017-07-14T05:48:09.825Z,88.71
2017-07-14T05:49:20.106Z,89.48
2017-07-14T05:50:30.061Z,88.9
2017-07-14T05:51:40.662Z,89.58
2017-07-14T05:52:51.197Z,88.9
2017-07-14T05:54:01.487Z,89.38
2017-07-14T05:55:11.773Z,89.38
2017-07-14T05:56:22.082Z,89.29
2017-07-14T05:57:32.103Z,89.38
2017-07-14T05:58:42.647Z,88.9
2017-07-14T05:59:52.608Z,88.52
2017-07-14T06:01:02.580Z,87.99
2017-07-14T06:02:12.905Z,87.7
2017-07-14T06:03:23.197Z,87.9
2017-07-14T06:04:33.464Z,87.32
2017-07-14T06:05:43.103Z,87.37
2017-07-14T06:06:53.383Z,87.13
2017-07-14T06:08:03.671Z,87.17
2017-07-14T06:09:13.929Z,87.37
2017-07-14T06:10:24.442Z,86.69
2017-07-14T06:11:34.410Z,86.6
2017-07-14T06:12:44.050Z,86.69
2017-07-14T06:13:54.361Z,86.5
2017-07-14T06:15:04.659Z,86.12
2017-07-14T06:16:15.204Z,85.45
2017-07-14T06:17:25.491Z,85.21
2017-07-14T06:18:35.776Z,86.17
2017-07-14T06:19:46.046Z,86.17
2017-07-14T06:20:56.324Z,84.45
2017-07-14T06:22:06.853Z,84.06
2017-07-14T06:23:17.116Z,84.35
2017-07-14T06:24:27.371Z,82.82
2017-07-14T06:25:37.641Z,81.67
2017-07-14T06:26:47.925Z,81.48
2017-07-14T06:27:58.136Z,81.29
2017-07-14T06:29:08.412Z,81.48
2017-07-14T06:30:18.690Z,80.62
2017-07-14T06:31:28.967Z,81.1
2017-07-14T06:32:39.252Z,82.06
2017-07-14T06:33:49.825Z,83.68
2017-07-14T06:34:59.766Z,84.16
2017-07-14T06:36:10.049Z,83.49
2017-07-14T06:37:20.009Z,84.88
2017-07-14T06:38:30.289Z,85.12
2017-07-14T06:39:40.482Z,84.55
2017-07-14T06:40:50.769Z,85.12
2017-07-14T06:42:01.049Z,84.45
2017-07-14T06:43:11.306Z,84.16
2017-07-14T06:44:21.260Z,84.16
2017-07-14T06:45:31.578Z,84.16
2017-07-14T06:46:41.940Z,83.49
2017-07-14T06:47:52.211Z,83.49
2017-07-14T06:49:02.173Z,83.49
2017-07-14T06:50:12.132Z,83.78
2017-07-14T06:51:22.699Z,84.01
2017-07-14T06:52:32.979Z,83.63
2017-07-14T06:53:42.929Z,84.39
2017-07-14T06:54:53.190Z,83.92
2017-07-14T06:56:03.456Z,83.44
2017-07-14T06:57:14.027Z,83.92
2017-07-14T06:58:24.298Z,82.86
2017-07-14T06:59:34.604Z,83.53
2017-07-14T07:00:44.538Z,83.15
2017-07-14T07:01:54.505Z,80.66
2017-07-14T07:03:05.005Z,78.74
2017-07-14T07:04:14.974Z,77.78
2017-07-14T07:05:25.254Z,78.45
2017-07-14T07:06:35.534Z,78.74
2017-07-14T07:07:45.509Z,80.08
2017-07-14T07:08:55.390Z,77.02
2017-07-14T07:10:05.666Z,78.64
2017-07-14T07:11:15.936Z,79.32
2017-07-14T07:12:26.244Z,79.13
2017-07-14T07:13:36.505Z,76.54
2017-07-14T07:14:47.051Z,75.77
2017-07-14T07:15:57.382Z,75.68
2017-07-14T07:17:07.338Z,76.64
2017-07-14T07:18:17.868Z,76.67
2017-07-14T07:19:27.866Z,76.96
2017-07-14T07:20:38.107Z,76.48
2017-07-14T07:21:48.369Z,77.25
2017-07-14T07:22:58.649Z,76.77
2017-07-14T07:24:08.289Z,77.34
2017-07-14T07:25:18.236Z,76.29
2017-07-14T07:26:28.809Z,75.62
2017-07-14T07:27:38.465Z,76.39
2017-07-14T07:28:48.753Z,76.19
2017-07-14T07:29:59.015Z,76.29
2017-07-14T07:31:09.300Z,74.89
2017-07-14T07:32:19.518Z,75.56
2017-07-14T07:33:29.484Z,73.16
2017-07-14T07:34:39.758Z,71.82
2017-07-14T07:35:50.036Z,71.92
2017-07-14T07:37:00.319Z,72.33
2017-07-14T07:38:10.851Z,71.76
2017-07-14T07:39:21.130Z,71.86
2017-07-14T07:40:31.098Z,71.95
2017-07-14T07:41:41.379Z,68.3
2017-07-14T07:42:51.356Z,68.3
2017-07-14T07:44:01.894Z,67.54
2017-07-14T07:45:12.205Z,68.21
2017-07-14T07:46:22.486Z,70.03
2017-07-14T07:47:32.807Z,66.96
2017-07-14T07:48:43.115Z,66.1
2017-07-14T07:49:53.345Z,67.54
2017-07-14T07:51:02.989Z,67.25
2017-07-14T07:52:13.257Z,67.44
2017-07-14T07:53:23.546Z,67.06
2017-07-14T07:54:33.534Z,66.77
2017-07-14T07:55:44.072Z,65.14
2017-07-14T07:56:54.384Z,65.62
2017-07-14T07:58:04.367Z,66.1
2017-07-14T07:59:14.573Z,66.86
2017-07-14T08:00:24.867Z,66.1
2017-07-14T08:01:35.411Z,66.49
2017-07-14T08:02:45.376Z,66.19
2017-07-14T08:03:55.648Z,63.51
2017-07-14T08:05:05.917Z,64.37
2017-07-14T08:06:15.560Z,65.08
2017-07-14T08:07:26.145Z,64.85
2017-07-14T08:08:36.404Z,64.85
2017-07-14T08:09:46.359Z,64.37
2017-07-14T08:10:56.636Z,64.66
2017-07-14T08:12:06.919Z,64.56
2017-07-14T08:13:17.447Z,65.05
2017-07-14T08:14:27.719Z,65.08
2017-07-14T08:15:38.024Z,63.92
2017-07-14T08:16:48.292Z,63.64
2017-07-14T08:17:58.583Z,63.73
2017-07-14T08:19:08.797Z,62.29
2017-07-14T08:20:18.786Z,62.77
2017-07-14T08:21:29.060Z,63.45
2017-07-14T08:22:39.346Z,65.14
2017-07-14T08:23:48.996Z,63.64
2017-07-14T08:24:59.538Z,63.64
2017-07-14T08:26:09.830Z,62.1
2017-07-14T08:27:20.114Z,62.29
2017-07-14T08:28:30.413Z,63.64
2017-07-14T08:29:40.479Z,62.29
2017-07-14T08:30:50.713Z,62.58
2017-07-14T08:32:01.010Z,62.96
2017-07-14T08:33:11.524Z,63.51
2017-07-14T08:34:21.822Z,62.1
2017-07-14T08:35:32.106Z,61.24
2017-07-14T08:36:42.629Z,61.14
2017-07-14T08:37:52.941Z,61.81
2017-07-14T08:39:02.898Z,61.02
2017-07-14T08:40:12.869Z,61.49
2017-07-14T08:41:23.170Z,60.05
2017-07-14T08:42:33.701Z,60.15
2017-07-14T08:43:43.986Z,59.67
2017-07-14T08:44:53.964Z,59.61
2017-07-14T08:46:03.943Z,60.38
2017-07-14T08:47:13.967Z,58.26
2017-07-14T08:48:24.495Z,58.55
2017-07-14T08:49:34.784Z,58.29
2017-07-14T08:50:45.052Z,57.71
2017-07-14T08:51:55.322Z,56.56
2017-07-14T08:53:04.976Z,56.76
2017-07-14T08:54:15.537Z,56.21
2017-07-14T08:55:25.859Z,56.3
2017-07-14T08:56:35.841Z,56.11
2017-07-14T08:57:46.151Z,53.64
2017-07-14T08:58:56.117Z,53.96
2017-07-14T09:00:06.377Z,51.64
2017-07-14T09:01:16.657Z,51.76
2017-07-14T09:02:26.646Z,52.08
2017-07-14T09:03:36.595Z,53.33
2017-07-14T09:04:46.894Z,49.12
2017-07-14T09:05:57.447Z,50.76
2017-07-14T09:07:07.718Z,49.7
2017-07-14T09:08:17.699Z,49.82
2017-07-14T09:09:28.030Z,47.6
2017-07-14T09:10:37.974Z,48.57
2017-07-14T09:11:47.864Z,48.86
2017-07-14T09:12:57.836Z,48.35
2017-07-14T09:14:07.796Z,47.6
2017-07-14T09:15:18.133Z,47.58
2017-07-14T09:16:28.417Z,46.55
2017-07-14T09:17:38.950Z,48.57
2017-07-14T09:18:48.924Z,47.53
2017-07-14T09:19:58.933Z,46.4
2017-07-14T09:21:09.218Z,47.65
2017-07-14T09:22:19.190Z,48.49
2017-07-14T09:23:29.745Z,48.86
2017-07-14T09:24:39.725Z,48.57
2017-07-14T09:25:50.005Z,45.89
2017-07-14T09:27:00.297Z,45.62
2017-07-14T09:28:10.274Z,46.66
2017-07-14T09:29:20.491Z,46.08
2017-07-14T09:30:30.456Z,45.87
2017-07-14T09:31:40.432Z,45.51
2017-07-14T09:32:50.726Z,46.37
2017-07-14T09:34:01.003Z,47.94
2017-07-14T09:35:11.523Z,46.13
2017-07-14T09:36:21.190Z,43.54
2017-07-14T09:37:31.176Z,44.51
2017-07-14T09:38:41.457Z,45.48
2017-07-14T09:39:51.748Z,46.13
2017-07-14T09:41:02.298Z,46.66
2017-07-14T09:42:12.610Z,47.34
2017-07-14T09:43:22.882Z,47.72
2017-07-14T09:44:32.859Z,49.65
2017-07-14T09:45:43.144Z,47.55
2017-07-14T09:46:53.680Z,46.11
2017-07-14T09:48:03.642Z,43.98
2017-07-14T09:49:13.938Z,44.56
2017-07-14T09:50:23.895Z,44.15
2017-07-14T09:51:34.190Z,45.68
2017-07-14T09:52:44.714Z,45.84
2017-07-14T09:53:54.675Z,45.65
2017-07-14T09:55:05.013Z,45.94
2017-07-14T09:56:15.337Z,45.65
2017-07-14T09:57:25.626Z,46.11
2017-07-14T09:58:36.144Z,45.83
2017-07-14T09:59:45.817Z,46.69
2017-07-14T10:00:56.131Z,45.65
2017-07-14T10:02:06.417Z,46.33
2017-07-14T10:03:16.706Z,48.44
2017-07-14T10:04:27.256Z,48.35
2017-07-14T10:05:37.530Z,49.1
2017-07-14T10:06:47.819Z,48.81
2017-07-14T10:07:58.122Z,48.9
2017-07-14T10:09:08.397Z,49.29
2017-07-14T10:10:18.932Z,48.69
2017-07-14T10:11:28.912Z,49.07
2017-07-14T10:12:39.202Z,49.84
2017-07-14T10:13:48.843Z,48.11
2017-07-14T10:14:59.112Z,48.69
2017-07-14T10:16:09.664Z,49.24
2017-07-14T10:17:19.962Z,48.76
2017-07-14T10:18:30.232Z,49.72
2017-07-14T10:19:40.507Z,49.63
2017-07-14T10:20:50.792Z,49.43
2017-07-14T10:22:01.345Z,49.91
2017-07-14T10:23:11.316Z,49.53
2017-07-14T10:24:21.584Z,49.31
2017-07-14T10:25:31.555Z,49.41
2017-07-14T10:26:41.507Z,49.91
2017-07-14T10:27:52.102Z,49.63
2017-07-14T10:29:02.382Z,49.05
2017-07-14T10:30:12.671Z,49.91
2017-07-14T10:31:22.954Z,49.91
2017-07-14T10:32:33.241Z,51.07
2017-07-14T10:33:43.758Z,51.29
2017-07-14T10:34:54.033Z,50.71
2017-07-14T10:36:04.295Z,49.27
2017-07-14T10:37:14.274Z,49.55
2017-07-14T10:38:24.577Z,49.17
2017-07-14T10:39:34.811Z,49.17
2017-07-14T10:40:44.779Z,50.51
2017-07-14T10:41:54.756Z,49.82
2017-07-14T10:43:04.711Z,50.87
2017-07-14T10:44:14.677Z,51.35
2017-07-14T10:45:24.887Z,49.27
2017-07-14T10:46:35.261Z,49.94
2017-07-14T10:47:44.909Z,46.47
2017-07-14T10:48:55.218Z,47.36
2017-07-14T10:50:05.177Z,46.31
2017-07-14T10:51:15.713Z,47.67
2017-07-14T10:52:25.986Z,46.14
2017-07-14T10:53:36.271Z,45.87
2017-07-14T10:54:46.703Z,46.06
2017-07-14T10:55:56.658Z,46.06
2017-07-14T10:57:07.211Z,44.32
2017-07-14T10:58:17.172Z,44.23
2017-07-14T10:59:27.136Z,44.35
2017-07-14T11:00:37.112Z,43.21
2017-07-14T11:01:47.428Z,43.96
2017-07-14T11:02:57.987Z,45.89
2017-07-14T11:04:08.275Z,45.03
2017-07-14T11:05:18.545Z,44.06
2017-07-14T11:06:28.193Z,45.58
2017-07-14T11:07:38.482Z,45.48
2017-07-14T11:08:49.024Z,44.54
2017-07-14T11:09:58.985Z,43.17
2017-07-14T11:11:09.273Z,43.19
2017-07-14T11:12:19.564Z,43.31
2017-07-14T11:13:29.833Z,40.15
2017-07-14T11:14:39.739Z,39.59
2017-07-14T11:15:49.088Z,41.44
2017-07-14T11:16:59.390Z,40.3
2017-07-14T11:18:09.682Z,38.39
2017-07-14T11:19:19.654Z,36.57
2017-07-14T11:20:29.921Z,36.1
2017-07-14T11:21:40.216Z,34.77
2017-07-14T11:22:50.494Z,34.97
2017-07-14T11:24:00.756Z,34.78
2017-07-14T11:25:11.034Z,34.97
2017-07-14T11:26:21.576Z,35.93
2017-07-14T11:27:31.882Z,34.86
2017-07-14T11:28:42.219Z,34.78
2017-07-14T11:29:52.508Z,33.92
2017-07-14T11:31:02.841Z,34.39
2017-07-14T11:32:13.397Z,35.93
2017-07-14T11:33:23.406Z,35.15
2017-07-14T11:34:33.720Z,36.57
2017-07-14T11:35:43.710Z,37.9
2017-07-14T11:36:54.003Z,36.74
2017-07-14T11:38:04.267Z,40.52
2017-07-14T11:39:14.563Z,39.09
2017-07-14T11:40:24.216Z,37.75
2017-07-14T11:41:34.501Z,34.78
2017-07-14T11:42:44.471Z,34.14
2017-07-14T11:43:55.000Z,32.62
2017-07-14T11:45:05.293Z,31.84
2017-07-14T11:46:15.575Z,31.84
2017-07-14T11:47:25.870Z,32.52
2017-07-14T11:48:35.835Z,32.2
2017-07-14T11:49:46.378Z,33.44
2017-07-14T11:50:56.674Z,33.72
2017-07-14T11:52:06.995Z,33.6
2017-07-14T11:53:16.986Z,32.71
2017-07-14T11:54:27.306Z,33.18
2017-07-14T11:55:37.503Z,34.84
2017-07-14T11:56:47.800Z,32.73
2017-07-14T11:57:58.081Z,32.26
2017-07-14T11:59:08.056Z,31.97
2017-07-14T12:00:18.326Z,32.09
2017-07-14T12:01:28.236Z,32.49
2017-07-14T12:02:38.209Z,31.82
2017-07-14T12:03:48.481Z,31.45
2017-07-14T12:04:58.454Z,30.97
2017-07-14T12:06:08.727Z,31.74
2017-07-14T12:07:19.410Z,31.73
2017-07-14T12:08:29.697Z,34.35
2017-07-14T12:09:39.976Z,32.7
2017-07-14T12:10:49.931Z,32.31
2017-07-14T12:11:59.908Z,32.5
2017-07-14T12:13:09.815Z,32.97
2017-07-14T12:14:20.082Z,34.51
2017-07-14T12:15:30.357Z,34.77
2017-07-14T12:16:40.350Z,34.77
2017-07-14T12:17:49.991Z,35.8
2017-07-14T12:19:00.217Z,36.55
2017-07-14T12:20:09.856Z,37.98
2017-07-14T12:21:19.813Z,36.36
2017-07-14T12:22:29.454Z,36.44
2017-07-14T12:23:39.730Z,37.19
2017-07-14T12:24:49.936Z,38.62
2017-07-14T12:25:59.891Z,40.26
2017-07-14T12:27:10.166Z,40.17
2017-07-14T12:28:20.443Z,40.09
2017-07-14T12:29:30.720Z,36.65
2017-07-14T12:30:40.633Z,39.28
2017-07-14T12:31:50.591Z,36.86
2017-07-14T12:33:00.883Z,36.51
2017-07-14T12:34:11.181Z,34.41
2017-07-14T12:35:21.483Z,32.68
2017-07-14T12:36:32.021Z,31.81
2017-07-14T12:37:41.354Z,32.96
2017-07-14T12:38:51.634Z,33.14
2017-07-14T12:40:01.914Z,34.28
2017-07-14T12:41:11.578Z,34.84
2017-07-14T12:42:22.149Z,36.38
2017-07-14T12:43:32.437Z,34.92
2017-07-14T12:44:42.405Z,34.83
2017-07-14T12:45:52.378Z,34.92
2017-07-14T12:47:02.665Z,35.31
2017-07-14T12:48:13.252Z,36.28
2017-07-14T12:49:23.566Z,36.94
2017-07-14T12:50:33.846Z,35.97
2017-07-14T13:00:16.315Z,35.89
2017-07-14T13:01:26.302Z,35.73
2017-07-14T13:02:36.265Z,33.25
2017-07-14T13:03:46.231Z,32.39
2017-07-14T13:04:56.125Z,32.41
2017-07-14T13:06:06.089Z,32
2017-07-14T13:07:16.389Z,31.81
2017-07-14T13:08:26.690Z,32.76
2017-07-14T13:09:36.976Z,34.11
2017-07-14T13:10:47.515Z,34.57
2017-07-14T13:11:57.808Z,34.55
2017-07-14T13:13:07.778Z,34.92
2017-07-14T13:14:17.756Z,34.25
2017-07-14T13:15:27.700Z,34.05
2017-07-14T13:16:37.950Z,34.44
2017-07-14T13:17:48.228Z,33.47
2017-07-14T13:18:58.515Z,34.54
2017-07-14T13:20:08.782Z,33.86
2017-07-14T13:21:19.070Z,34.62
2017-07-14T13:22:29.552Z,34.23
2017-07-14T13:23:39.831Z,33.86
2017-07-14T13:24:49.826Z,33.69
2017-07-14T13:26:00.114Z,33.49
2017-07-14T13:27:10.393Z,33.01
2017-07-14T13:28:20.930Z,33.47
2017-07-14T13:29:31.228Z,33.09
2017-07-14T13:30:41.502Z,32.89
2017-07-14T13:31:51.463Z,33.01
2017-07-14T13:33:01.756Z,33.41
2017-07-14T13:34:12.278Z,32.54
2017-07-14T13:35:22.260Z,33.2
2017-07-14T13:36:32.571Z,33.95
2017-07-14T13:37:42.528Z,34.34
2017-07-14T13:38:52.515Z,34.91
2017-07-14T13:40:03.060Z,35.28
2017-07-14T13:41:13.037Z,35.47
2017-07-14T13:42:23.303Z,35.78
2017-07-14T13:43:33.595Z,35.1
2017-07-14T13:44:43.549Z,34.23
2017-07-14T13:45:54.102Z,35.8
2017-07-14T13:47:04.055Z,33.57
2017-07-14T13:48:14.357Z,33.6
2017-07-14T13:49:24.010Z,32.07
2017-07-14T13:50:34.293Z,32.36
2017-07-14T13:51:44.521Z,31.78
2017-07-14T13:52:54.816Z,32.15
2017-07-14T13:54:04.777Z,31.97
2017-07-14T13:55:15.052Z,31.68
2017-07-14T13:56:25.323Z,31.29
2017-07-14T13:57:35.870Z,31.49
2017-07-14T13:58:45.840Z,31.79
2017-07-14T13:59:55.795Z,31.41
2017-07-14T14:01:06.071Z,32.09
2017-07-14T14:02:16.050Z,32.84
2017-07-14T14:03:25.976Z,33.22
2017-07-14T14:04:36.278Z,34.55
2017-07-14T14:05:46.222Z,35.7
2017-07-14T14:06:56.217Z,34.63
2017-07-14T14:08:06.481Z,34.54
2017-07-14T14:09:16.373Z,33.97
2017-07-14T14:10:26.360Z,33.49
2017-07-14T14:11:36.705Z,32.54
2017-07-14T14:12:46.672Z,31.79
2017-07-14T14:13:56.951Z,32.5
2017-07-14T14:15:06.889Z,33.65
2017-07-14T14:16:16.857Z,33.34
2017-07-14T14:17:27.147Z,34.78
2017-07-14T14:18:37.433Z,33.92
2017-07-14T14:19:47.400Z,33.25
2017-07-14T14:20:57.965Z,34.89
2017-07-14T14:22:08.248Z,35.85
2017-07-14T14:23:18.534Z,32.37
2017-07-14T14:24:28.500Z,31.89
2017-07-14T14:25:38.793Z,31.24
2017-07-14T14:26:49.007Z,29.12
2017-07-14T14:27:58.978Z,28.66
2017-07-14T14:29:08.940Z,29.74
2017-07-14T14:30:18.930Z,27.97
2017-07-14T14:31:29.229Z,27.39
2017-07-14T14:32:39.438Z,27.5
2017-07-14T14:33:49.084Z,27.5
2017-07-14T14:34:59.384Z,26.34
2017-07-14T14:36:09.349Z,25.97
2017-07-14T14:37:19.323Z,25.98
2017-07-14T14:38:29.879Z,24.44
2017-07-14T14:39:40.165Z,24.76
2017-07-14T14:40:50.140Z,23.69
2017-07-14T14:42:00.449Z,24.77
2017-07-14T14:43:10.439Z,24.94
2017-07-14T14:44:20.348Z,25.9
2017-07-14T14:45:30.657Z,25.97
2017-07-14T14:46:40.952Z,26.83
2017-07-14T14:47:51.241Z,27.01
2017-07-14T14:49:00.901Z,28.65
2017-07-14T14:50:11.460Z,28.36
2017-07-14T14:51:21.332Z,27.87
2017-07-14T14:52:31.605Z,28.18
2017-07-14T14:53:41.591Z,29.61
2017-07-14T14:54:51.873Z,29.79
2017-07-14T14:56:01.832Z,30.16
2017-07-14T14:57:11.487Z,29.5
2017-07-14T14:58:21.448Z,28.43
2017-07-14T14:59:31.398Z,28.54
2017-07-14T15:00:41.914Z,28.74
2017-07-14T15:01:52.443Z,28.44
2017-07-14T15:03:02.726Z,30.08
2017-07-14T15:04:13.051Z,31.31
2017-07-14T15:05:23.320Z,31.39
2017-07-14T15:06:33.300Z,32.34
2017-07-14T15:07:43.848Z,32.71
2017-07-14T15:08:54.122Z,33.49
2017-07-14T15:10:04.437Z,32.99
2017-07-14T15:11:14.400Z,32.71
2017-07-14T15:12:24.681Z,33.1
2017-07-14T15:13:35.224Z,32.89
2017-07-14T15:14:45.535Z,32.79
2017-07-14T15:15:55.823Z,33.57